Аэропорт: Игнатьево. Благовещенск

ICAO: UHBB

METAR:
2020-06-01 01:00:00
UHBB 010100Z 02005MPS 7000 -SHRA BKN009 BKN023CB 12/11 Q1001 R36/290250 NOSIG RMK QFE733/0978
METAR:
2020-05-31 23:00:00
TAF UHBB 312300Z 0100/0124 02006G11MPS 3100 -SHRA BR BKN005 BKN009CB TEMPO 0100/0124 1200 SHRA BR